Time;durP1;ratioP1;P1;durP2;ratioP2;P2;SDS_P1;SDS_P2;PMS_P1;PMS_P2;Temp;Humidity;BMP_temperature;BMP_pressure;BME280_temperature;BME280_humidity;BME280_pressure;Samples;Min_cycle;Max_cycle;Signal;HPM_P1;HPM_P2
2022/03/02 00:00:49;;;;;;;16.98;11.32;;;;;;;;;;5082731;28;20385;-69
2022/03/02 00:03:15;;;;;;;16.13;12.07;;;;;;;;;;5083497;28;20188;-68
2022/03/02 00:05:42;;;;;;;14.18;10.80;;;;;;;;;;5083003;28;20224;-68
2022/03/02 00:08:09;;;;;;;15.98;10.63;;;;;;;;;;5082786;28;20212;-68
2022/03/02 00:10:35;;;;;;;17.60;11.18;;;;;;;;;;5082838;28;20474;-68
2022/03/02 00:13:01;;;;;;;14.45;10.85;;;;;;;;;;5082875;28;20204;-68
2022/03/02 00:15:28;;;;;;;14.95;11.00;;;;;;;;;;5083063;28;20203;-68
2022/03/02 00:17:54;;;;;;;13.60;11.20;;;;;;;;;;5082693;28;20199;-68
2022/03/02 00:20:20;;;;;;;17.98;12.02;;;;;;;;;;5082860;28;20196;-68
2022/03/02 00:22:52;;;;;;;18.67;10.98;;;;;;;;;;5082597;28;20202;-68
2022/03/02 00:25:18;;;;;;;17.60;11.88;;;;;;;;;;5082927;28;20374;-68
2022/03/02 00:27:45;;;;;;;15.23;11.02;;;;;;;;;;5082293;28;20222;-68
2022/03/02 00:30:11;;;;;;;16.70;11.02;;;;;;;;;;5082657;28;20212;-68
2022/03/02 00:32:37;;;;;;;15.40;11.35;;;;;;;;;;5082533;28;20200;-68
2022/03/02 00:35:04;;;;;;;15.70;10.95;;;;;;;;;;5082576;28;20197;-68
2022/03/02 00:37:30;;;;;;;13.10;10.23;;;;;;;;;;5082283;28;20203;-68
2022/03/02 00:39:58;;;;;;;13.75;10.43;;;;;;;;;;5082580;28;20196;-68
2022/03/02 00:42:24;;;;;;;15.95;11.23;;;;;;;;;;5082613;28;20200;-68
2022/03/02 00:44:51;;;;;;;18.48;12.43;;;;;;;;;;5082440;28;20204;-68
2022/03/02 00:47:17;;;;;;;19.75;12.23;;;;;;;;;;5082096;28;20745;-68
2022/03/02 00:49:44;;;;;;;20.45;12.57;;;;;;;;;;5082872;28;20196;-68
2022/03/02 00:52:11;;;;;;;20.55;12.88;;;;;;;;;;5082319;28;20196;-68
2022/03/02 00:54:37;;;;;;;21.60;13.38;;;;;;;;;;5082534;28;20208;-68
2022/03/02 00:57:05;;;;;;;21.15;13.65;;;;;;;;;;5082221;28;20395;-68
2022/03/02 00:59:31;;;;;;;21.05;12.70;;;;;;;;;;5082359;28;20196;-68
2022/03/02 01:01:58;;;;;;;20.05;13.70;;;;;;;;;;5082197;28;20496;-68
2022/03/02 01:04:24;;;;;;;19.02;12.40;;;;;;;;;;5082145;28;20219;-68
2022/03/02 01:06:50;;;;;;;21.02;13.35;;;;;;;;;;5081784;28;20216;-68
2022/03/02 01:09:17;;;;;;;21.27;13.10;;;;;;;;;;5082218;28;20402;-68
2022/03/02 01:11:43;;;;;;;21.30;13.30;;;;;;;;;;5082037;28;20211;-68
2022/03/02 01:14:10;;;;;;;19.70;12.27;;;;;;;;;;5082164;28;20207;-68
2022/03/02 01:16:37;;;;;;;19.77;12.63;;;;;;;;;;5082018;28;20196;-68
2022/03/02 01:19:03;;;;;;;22.00;13.00;;;;;;;;;;5081997;28;20192;-68
2022/03/02 01:21:30;;;;;;;21.23;11.98;;;;;;;;;;5081981;28;20208;-68
2022/03/02 01:23:58;;;;;;;17.42;11.40;;;;;;;;;;5082194;28;20211;-68
2022/03/02 01:26:25;;;;;;;17.50;10.88;;;;;;;;;;5081726;28;20203;-68
2022/03/02 01:28:53;;;;;;;16.02;11.95;;;;;;;;;;5081952;28;20231;-68
2022/03/02 01:31:22;;;;;;;16.05;10.82;;;;;;;;;;5081859;28;20381;-68
2022/03/02 01:33:48;;;;;;;13.50;10.35;;;;;;;;;;5081787;28;20196;-68
2022/03/02 01:36:14;;;;;;;16.00;11.80;;;;;;;;;;5081620;28;20211;-68
2022/03/02 01:38:41;;;;;;;20.70;12.02;;;;;;;;;;5081968;28;20195;-68
2022/03/02 01:41:07;;;;;;;14.63;11.38;;;;;;;;;;5081925;28;20250;-68
2022/03/02 01:43:33;;;;;;;15.55;11.80;;;;;;;;;;5081747;28;20196;-68
2022/03/02 01:46:00;;;;;;;16.98;11.50;;;;;;;;;;5081652;28;20496;-68
2022/03/02 01:48:27;;;;;;;16.48;12.15;;;;;;;;;;5081601;28;20213;-68
2022/03/02 01:50:53;;;;;;;21.00;12.27;;;;;;;;;;5081709;28;20196;-68
2022/03/02 01:53:20;;;;;;;18.92;12.85;;;;;;;;;;5082059;28;20203;-68
2022/03/02 01:55:46;;;;;;;21.15;13.13;;;;;;;;;;5081694;28;20205;-68
2022/03/02 01:58:12;;;;;;;18.40;12.45;;;;;;;;;;5081509;28;20198;-68
2022/03/02 02:00:39;;;;;;;20.60;13.65;;;;;;;;;;5081669;28;20514;-68
2022/03/02 02:03:05;;;;;;;18.63;12.70;;;;;;;;;;5081632;28;20496;-68
2022/03/02 02:05:33;;;;;;;17.80;12.35;;;;;;;;;;5081005;28;20223;-68
2022/03/02 02:07:59;;;;;;;18.27;11.98;;;;;;;;;;5081214;28;20220;-68
2022/03/02 02:10:25;;;;;;;19.98;12.57;;;;;;;;;;5081467;28;20225;-68
2022/03/02 02:12:52;;;;;;;19.00;12.85;;;;;;;;;;5081453;28;20211;-68
2022/03/02 02:15:18;;;;;;;19.13;13.00;;;;;;;;;;5081720;28;20203;-68
2022/03/02 02:17:44;;;;;;;19.60;13.23;;;;;;;;;;5081490;28;20516;-68
2022/03/02 02:20:11;;;;;;;22.67;13.88;;;;;;;;;;5081582;28;20197;-68
2022/03/02 02:22:40;;;;;;;27.52;14.18;;;;;;;;;;5082691;28;20197;-68
2022/03/02 02:25:06;;;;;;;21.25;13.63;;;;;;;;;;5084964;28;20204;-68
2022/03/02 02:27:33;;;;;;;21.45;13.85;;;;;;;;;;5085011;28;20234;-68
2022/03/02 02:30:00;;;;;;;23.50;14.38;;;;;;;;;;5085040;28;20196;-68
2022/03/02 02:32:27;;;;;;;20.55;13.05;;;;;;;;;;5085109;28;20203;-68
2022/03/02 02:34:53;;;;;;;19.92;12.70;;;;;;;;;;5084830;28;20196;-68
2022/03/02 02:37:19;;;;;;;17.88;12.27;;;;;;;;;;5084604;28;20515;-68
2022/03/02 02:39:54;;;;;;;19.35;13.50;;;;;;;;;;5084710;28;20231;-68
2022/03/02 02:42:21;;;;;;;19.42;12.45;;;;;;;;;;5084997;28;20203;-68
2022/03/02 02:44:47;;;;;;;20.35;13.23;;;;;;;;;;5084829;28;20496;-68
2022/03/02 02:47:13;;;;;;;22.25;14.02;;;;;;;;;;5084531;28;20227;-68
2022/03/02 02:49:40;;;;;;;21.20;13.65;;;;;;;;;;5084550;28;20557;-68
2022/03/02 02:52:06;;;;;;;21.23;12.20;;;;;;;;;;5084379;28;20204;-68
2022/03/02 02:54:33;;;;;;;17.73;13.02;;;;;;;;;;5084506;28;20271;-68
2022/03/02 02:57:00;;;;;;;17.58;12.18;;;;;;;;;;5084439;28;20196;-68
2022/03/02 02:59:26;;;;;;;17.55;12.50;;;;;;;;;;5084326;28;20220;-68
2022/03/02 03:01:53;;;;;;;19.77;12.82;;;;;;;;;;5084445;28;20247;-68
2022/03/02 03:04:19;;;;;;;19.23;12.98;;;;;;;;;;5084294;28;20196;-68
2022/03/02 03:06:45;;;;;;;21.95;13.60;;;;;;;;;;5083947;28;20224;-68
2022/03/02 03:09:12;;;;;;;19.00;12.07;;;;;;;;;;5084188;28;20219;-68
2022/03/02 03:11:39;;;;;;;21.80;12.90;;;;;;;;;;5084331;28;20386;-68
2022/03/02 03:14:11;;;;;;;19.88;13.32;;;;;;;;;;5084311;28;20434;-68
2022/03/02 03:16:37;;;;;;;21.30;13.50;;;;;;;;;;5084056;28;20200;-68
2022/03/02 03:19:04;;;;;;;21.75;13.88;;;;;;;;;;5084165;28;20200;-68
2022/03/02 03:21:30;;;;;;;21.13;13.48;;;;;;;;;;5083844;28;20212;-68
2022/03/02 03:23:56;;;;;;;19.05;13.27;;;;;;;;;;5084209;28;20530;-68
2022/03/02 03:26:23;;;;;;;25.58;13.25;;;;;;;;;;5083883;28;20196;-68
2022/03/02 03:28:49;;;;;;;19.45;12.63;;;;;;;;;;5083790;28;20220;-68
2022/03/02 03:31:17;;;;;;;20.67;12.40;;;;;;;;;;5083868;28;20211;-68
2022/03/02 03:33:43;;;;;;;20.20;13.38;;;;;;;;;;5083637;28;20204;-68
2022/03/02 03:36:09;;;;;;;17.85;12.07;;;;;;;;;;5083486;28;20204;-68
2022/03/02 03:38:36;;;;;;;20.40;11.93;;;;;;;;;;5083982;28;20192;-68
2022/03/02 03:41:02;;;;;;;16.67;12.02;;;;;;;;;;5083566;28;20208;-68
2022/03/02 03:43:29;;;;;;;19.25;11.15;;;;;;;;;;5083684;28;20267;-68
2022/03/02 03:45:55;;;;;;;15.02;10.63;;;;;;;;;;5083415;28;20211;-68
2022/03/02 03:48:23;;;;;;;18.48;11.90;;;;;;;;;;5083130;28;20412;-68
2022/03/02 03:50:49;;;;;;;16.40;11.02;;;;;;;;;;5083583;28;20196;-68
2022/03/02 03:53:15;;;;;;;17.60;12.45;;;;;;;;;;5083541;28;20551;-68
2022/03/02 03:55:41;;;;;;;17.02;12.18;;;;;;;;;;5083422;28;20197;-68
2022/03/02 03:58:08;;;;;;;16.45;11.68;;;;;;;;;;5083070;28;20197;-68
2022/03/02 04:00:34;;;;;;;16.40;11.82;;;;;;;;;;5083310;28;20395;-68
2022/03/02 04:03:01;;;;;;;17.05;12.02;;;;;;;;;;5083004;28;20224;-68
2022/03/02 04:05:28;;;;;;;18.83;12.02;;;;;;;;;;5083142;28;20263;-68
2022/03/02 04:07:55;;;;;;;18.58;11.98;;;;;;;;;;5082918;28;20211;-68
2022/03/02 04:10:21;;;;;;;18.52;12.95;;;;;;;;;;5082924;28;20203;-68
2022/03/02 04:12:47;;;;;;;18.83;12.55;;;;;;;;;;5082990;28;20217;-68
2022/03/02 04:15:14;;;;;;;18.55;12.00;;;;;;;;;;5083435;28;20394;-68
2022/03/02 04:17:40;;;;;;;17.85;12.10;;;;;;;;;;5083103;28;20196;-68
2022/03/02 04:20:07;;;;;;;22.23;13.55;;;;;;;;;;5082988;28;20192;-68
2022/03/02 04:22:35;;;;;;;19.65;12.55;;;;;;;;;;5082923;28;20235;-68
2022/03/02 04:25:01;;;;;;;19.17;12.93;;;;;;;;;;5082671;28;20207;-68
2022/03/02 04:27:27;;;;;;;17.30;12.15;;;;;;;;;;5082547;28;20196;-68
2022/03/02 04:29:54;;;;;;;19.40;12.77;;;;;;;;;;5082559;28;20226;-68
2022/03/02 04:32:20;;;;;;;19.42;12.38;;;;;;;;;;5082875;28;20196;-68
2022/03/02 04:34:46;;;;;;;19.10;13.57;;;;;;;;;;5082594;28;20203;-68
2022/03/02 04:37:12;;;;;;;22.42;14.00;;;;;;;;;;5082626;28;20212;-68
2022/03/02 04:39:40;;;;;;;19.23;13.32;;;;;;;;;;5082564;28;20200;-68
2022/03/02 04:42:07;;;;;;;17.75;12.65;;;;;;;;;;5082462;28;20196;-68
2022/03/02 04:44:33;;;;;;;27.90;12.98;;;;;;;;;;5082186;28;20203;-68
2022/03/02 04:46:59;;;;;;;37.53;18.40;;;;;;;;;;5081970;28;20203;-68
2022/03/02 04:49:26;;;;;;;57.88;24.40;;;;;;;;;;5082630;28;20394;-68
2022/03/02 04:51:52;;;;;;;38.10;19.30;;;;;;;;;;5082626;28;20204;-68
2022/03/02 04:57:05;;;;;;;120.43;46.08;;;;;;;;;;5081984;28;20422;-68
2022/03/02 04:59:31;;;;;;;110.72;40.55;;;;;;;;;;5082332;28;20192;-68
2022/03/02 05:01:57;;;;;;;43.65;21.25;;;;;;;;;;5082433;28;20205;-68
2022/03/02 05:04:23;;;;;;;27.73;15.18;;;;;;;;;;5082422;28;20203;-68
2022/03/02 05:06:50;;;;;;;25.67;15.18;;;;;;;;;;5082082;28;20216;-68
2022/03/02 05:09:16;;;;;;;27.10;14.35;;;;;;;;;;5082215;28;20220;-68
2022/03/02 05:11:42;;;;;;;23.33;14.50;;;;;;;;;;5082054;28;20212;-68
2022/03/02 05:14:10;;;;;;;25.35;14.63;;;;;;;;;;5082364;28;20188;-68
2022/03/02 05:16:36;;;;;;;24.75;13.98;;;;;;;;;;5082057;28;20196;-68
2022/03/02 05:19:03;;;;;;;26.83;14.63;;;;;;;;;;5082142;28;20192;-68
2022/03/02 05:21:29;;;;;;;21.58;13.35;;;;;;;;;;5082130;28;20196;-68
2022/03/02 05:23:55;;;;;;;22.55;13.90;;;;;;;;;;5082011;28;20197;-68
2022/03/02 05:26:21;;;;;;;25.13;13.90;;;;;;;;;;5081839;28;20200;-68
2022/03/02 05:28:48;;;;;;;22.98;14.45;;;;;;;;;;5082104;28;20217;-68
2022/03/02 05:31:15;;;;;;;25.63;15.68;;;;;;;;;;5082025;28;20196;-68
2022/03/02 05:33:42;;;;;;;21.30;13.63;;;;;;;;;;5082011;28;20271;-68
2022/03/02 05:36:08;;;;;;;22.75;14.50;;;;;;;;;;5081757;28;20197;-68
2022/03/02 05:38:34;;;;;;;21.40;14.35;;;;;;;;;;5082005;28;20522;-68
2022/03/02 05:41:00;;;;;;;30.77;15.02;;;;;;;;;;5081839;28;20403;-68
2022/03/02 05:43:27;;;;;;;24.48;14.15;;;;;;;;;;5082068;28;20196;-68
2022/03/02 05:45:53;;;;;;;20.77;14.38;;;;;;;;;;5081912;28;20196;-67
2022/03/02 05:48:20;;;;;;;21.95;14.20;;;;;;;;;;5081369;28;20200;-67
2022/03/02 05:50:47;;;;;;;20.88;13.95;;;;;;;;;;5081831;28;20495;-67
2022/03/02 05:53:13;;;;;;;19.27;13.77;;;;;;;;;;5081711;28;20276;-67
2022/03/02 05:55:39;;;;;;;24.75;14.18;;;;;;;;;;5081786;28;20196;-68
2022/03/02 05:58:06;;;;;;;25.42;14.13;;;;;;;;;;5083623;28;20203;-67
2022/03/02 06:00:32;;;;;;;28.17;14.27;;;;;;;;;;5085806;28;20491;-67
2022/03/02 06:02:58;;;;;;;21.80;14.00;;;;;;;;;;5085559;28;20426;-67
2022/03/02 06:05:26;;;;;;;25.58;13.80;;;;;;;;;;5085394;28;20224;-68
2022/03/02 06:07:52;;;;;;;26.75;14.10;;;;;;;;;;5085240;28;20192;-67
2022/03/02 06:10:19;;;;;;;21.33;14.05;;;;;;;;;;5085254;28;20291;-67
2022/03/02 06:12:46;;;;;;;22.50;14.40;;;;;;;;;;5085316;28;20250;-67
2022/03/02 06:15:13;;;;;;;28.83;15.05;;;;;;;;;;5085428;28;20574;-67
2022/03/02 06:17:41;;;;;;;22.08;13.10;;;;;;;;;;5085364;28;20203;-67
2022/03/02 06:20:08;;;;;;;21.33;14.57;;;;;;;;;;5085145;28;20192;-67
2022/03/02 06:22:36;;;;;;;22.80;13.27;;;;;;;;;;5084909;28;20201;-67
2022/03/02 06:25:03;;;;;;;27.33;14.38;;;;;;;;;;5085083;28;20350;-67
2022/03/02 06:27:30;;;;;;;22.55;13.95;;;;;;;;;;5085037;28;20224;-67
2022/03/02 06:29:56;;;;;;;25.30;14.68;;;;;;;;;;5085064;28;20220;-67
2022/03/02 06:32:22;;;;;;;26.75;14.00;;;;;;;;;;5085047;28;20203;-67
2022/03/02 06:34:49;;;;;;;24.17;13.95;;;;;;;;;;5084515;28;20200;-67
2022/03/02 06:37:15;;;;;;;24.45;13.73;;;;;;;;;;5069970;28;20208;-67
2022/03/02 06:39:43;;;;;;;23.33;14.57;;;;;;;;;;5075838;28;20508;-67
2022/03/02 06:42:13;;;;;;;30.88;15.55;;;;;;;;;;5077716;28;20208;-60
2022/03/02 06:44:44;;;;;;;24.73;14.70;;;;;;;;;;5074104;28;20254;-60
2022/03/02 06:47:11;;;;;;;25.77;15.13;;;;;;;;;;5078546;28;20208;-60
2022/03/02 06:49:47;;;;;;;26.23;14.38;;;;;;;;;;5078046;28;20230;-59
2022/03/02 06:52:17;;;;;;;24.08;13.57;;;;;;;;;;5078822;28;20399;-59
2022/03/02 06:54:46;;;;;;;22.25;14.15;;;;;;;;;;5079076;28;20215;-60
2022/03/02 06:57:13;;;;;;;21.58;14.15;;;;;;;;;;5078395;28;20216;-61
2022/03/02 06:59:40;;;;;;;22.13;14.38;;;;;;;;;;5077915;28;20200;-61
2022/03/02 07:02:07;;;;;;;21.85;14.65;;;;;;;;;;5078246;28;20230;-61
2022/03/02 07:04:34;;;;;;;20.23;14.40;;;;;;;;;;5078533;28;20517;-61
2022/03/02 07:07:02;;;;;;;22.13;14.40;;;;;;;;;;5077895;28;20415;-60
2022/03/02 07:09:28;;;;;;;21.85;14.07;;;;;;;;;;5077390;28;20230;-60
2022/03/02 07:11:57;;;;;;;24.85;15.15;;;;;;;;;;5078161;28;20231;-60
2022/03/02 07:14:23;;;;;;;22.98;14.15;;;;;;;;;;5073818;28;20201;-60
2022/03/02 07:16:50;;;;;;;24.15;15.13;;;;;;;;;;5057658;28;20422;-59
2022/03/02 07:19:17;;;;;;;24.50;14.52;;;;;;;;;;5057336;28;20212;-60
2022/03/02 07:21:44;;;;;;;22.85;15.13;;;;;;;;;;5058125;28;20209;-59
2022/03/02 07:24:14;;;;;;;24.92;14.98;;;;;;;;;;5058280;28;20219;-60
2022/03/02 07:26:43;;;;;;;20.48;14.52;;;;;;;;;;5057739;28;20215;-60
2022/03/02 07:29:12;;;;;;;21.20;13.93;;;;;;;;;;5057465;28;20469;-59
2022/03/02 07:31:39;;;;;;;24.90;15.50;;;;;;;;;;5072013;28;20216;-60
2022/03/02 07:34:07;;;;;;;25.38;15.43;;;;;;;;;;5078363;28;20211;-60
2022/03/02 07:36:33;;;;;;;25.30;14.90;;;;;;;;;;5077695;28;20327;-59
2022/03/02 07:39:00;;;;;;;23.88;13.70;;;;;;;;;;5077509;28;20574;-60
2022/03/02 07:41:26;;;;;;;24.77;15.50;;;;;;;;;;5078480;28;20208;-60
2022/03/02 07:43:53;;;;;;;23.02;15.05;;;;;;;;;;5078711;28;20208;-58
2022/03/02 07:46:20;;;;;;;20.92;14.68;;;;;;;;;;5077445;28;20224;-61
2022/03/02 07:48:47;;;;;;;23.83;15.48;;;;;;;;;;5077107;28;20208;-60
2022/03/02 07:51:14;;;;;;;28.77;15.25;;;;;;;;;;5076873;28;20591;-60
2022/03/02 07:53:42;;;;;;;27.35;14.90;;;;;;;;;;5077356;28;20208;-58
2022/03/02 07:56:08;;;;;;;34.72;16.50;;;;;;;;;;5077159;28;20356;-59
2022/03/02 07:58:37;;;;;;;26.05;14.93;;;;;;;;;;5076709;28;20408;-60
2022/03/02 08:01:04;;;;;;;41.50;16.25;;;;;;;;;;5076868;28;20235;-61
2022/03/02 08:03:35;;;;;;;29.15;14.80;;;;;;;;;;5077019;28;20200;-60
2022/03/02 08:06:01;;;;;;;23.45;14.55;;;;;;;;;;5077015;28;20224;-60
2022/03/02 08:08:28;;;;;;;25.17;15.40;;;;;;;;;;5076796;28;20383;-59
2022/03/02 08:10:54;;;;;;;25.83;14.32;;;;;;;;;;5076610;28;20449;-59
2022/03/02 08:13:22;;;;;;;20.77;14.10;;;;;;;;;;5077073;28;20544;-60
2022/03/02 08:15:49;;;;;;;26.63;15.00;;;;;;;;;;5076971;28;20209;-60
2022/03/02 08:18:15;;;;;;;21.33;14.60;;;;;;;;;;5076573;28;20548;-59
2022/03/02 08:20:46;;;;;;;23.10;14.98;;;;;;;;;;5076317;28;20223;-59
2022/03/02 08:23:12;;;;;;;24.58;14.43;;;;;;;;;;5077115;28;20211;-60
2022/03/02 08:25:39;;;;;;;22.33;14.23;;;;;;;;;;5077355;28;20689;-60
2022/03/02 08:28:09;;;;;;;18.40;13.90;;;;;;;;;;5076462;28;20209;-59
2022/03/02 08:30:37;;;;;;;25.98;14.85;;;;;;;;;;5076470;28;20230;-60
2022/03/02 08:33:03;;;;;;;21.13;13.55;;;;;;;;;;5076939;28;20526;-61
2022/03/02 08:35:34;;;;;;;22.92;14.20;;;;;;;;;;5076785;28;20206;-60
2022/03/02 08:38:02;;;;;;;23.80;15.05;;;;;;;;;;5076040;28;21123;-59
2022/03/02 08:40:29;;;;;;;22.83;14.18;;;;;;;;;;5076842;28;20426;-59
2022/03/02 08:42:56;;;;;;;26.75;14.68;;;;;;;;;;5076595;28;20216;-58
2022/03/02 08:45:23;;;;;;;20.83;14.50;;;;;;;;;;5076582;28;20474;-58
2022/03/02 08:47:50;;;;;;;27.85;15.88;;;;;;;;;;5076603;28;20257;-60
2022/03/02 08:50:16;;;;;;;27.30;15.38;;;;;;;;;;5076848;28;20234;-59
2022/03/02 08:52:43;;;;;;;27.40;14.52;;;;;;;;;;5076775;28;20208;-60
2022/03/02 08:55:11;;;;;;;24.65;14.45;;;;;;;;;;5076587;28;20396;-58
2022/03/02 08:57:40;;;;;;;28.75;15.65;;;;;;;;;;5075847;28;20200;-60
2022/03/02 09:00:07;;;;;;;21.33;13.70;;;;;;;;;;5075892;28;20445;-60
2022/03/02 09:02:35;;;;;;;23.60;14.07;;;;;;;;;;5076405;28;20538;-61
2022/03/02 09:05:03;;;;;;;21.02;13.10;;;;;;;;;;5076024;28;20251;-59
2022/03/02 09:07:29;;;;;;;22.98;11.80;;;;;;;;;;5075562;28;20555;-60
2022/03/02 09:09:56;;;;;;;19.65;12.07;;;;;;;;;;5076463;28;20221;-60
2022/03/02 09:12:23;;;;;;;19.98;12.20;;;;;;;;;;5076152;28;20223;-59
2022/03/02 09:14:50;;;;;;;16.33;12.05;;;;;;;;;;5076239;28;20215;-58
2022/03/02 09:17:17;;;;;;;17.27;11.60;;;;;;;;;;5075487;28;20209;-59
2022/03/02 09:19:43;;;;;;;15.90;11.10;;;;;;;;;;5075970;28;20212;-60
2022/03/02 09:22:10;;;;;;;16.95;11.10;;;;;;;;;;5076374;28;20214;-59
2022/03/02 09:24:37;;;;;;;16.52;12.07;;;;;;;;;;5076301;28;20215;-59
2022/03/02 09:27:05;;;;;;;20.45;11.63;;;;;;;;;;5076426;28;20223;-60
2022/03/02 09:29:33;;;;;;;15.57;12.20;;;;;;;;;;5076471;28;20465;-59
2022/03/02 09:32:00;;;;;;;17.30;12.27;;;;;;;;;;5078452;28;20208;-59
2022/03/02 09:34:27;;;;;;;19.67;11.45;;;;;;;;;;5080372;28;20215;-61
2022/03/02 09:36:54;;;;;;;19.48;11.85;;;;;;;;;;5080505;28;20208;-61
2022/03/02 09:39:23;;;;;;;21.30;11.52;;;;;;;;;;5079924;28;20212;-60
2022/03/02 09:41:51;;;;;;;19.13;11.80;;;;;;;;;;5080710;28;20250;-61
2022/03/02 09:44:20;;;;;;;16.08;9.82;;;;;;;;;;5080672;28;20217;-60
2022/03/02 09:46:50;;;;;;;16.65;10.73;;;;;;;;;;5079751;28;20208;-59
2022/03/02 09:49:20;;;;;;;18.15;10.00;;;;;;;;;;5080524;28;20208;-59
2022/03/02 09:51:50;;;;;;;20.67;10.65;;;;;;;;;;5080372;28;20547;-60
2022/03/02 09:54:21;;;;;;;12.63;10.43;;;;;;;;;;5080662;28;20448;-60
2022/03/02 09:56:49;;;;;;;20.65;10.65;;;;;;;;;;5079832;28;20523;-60
2022/03/02 09:59:17;;;;;;;11.68;9.27;;;;;;;;;;5079892;28;20209;-60
2022/03/02 10:01:44;;;;;;;14.63;9.77;;;;;;;;;;5080285;28;20236;-59
2022/03/02 10:04:17;;;;;;;14.95;10.15;;;;;;;;;;5080411;28;20440;-59
2022/03/02 10:06:45;;;;;;;13.02;9.63;;;;;;;;;;5079634;28;20223;-60
2022/03/02 10:09:12;;;;;;;18.05;9.98;;;;;;;;;;5080095;28;20417;-60
2022/03/02 10:11:41;;;;;;;13.00;9.38;;;;;;;;;;5079838;28;20241;-59
2022/03/02 10:14:08;;;;;;;11.82;9.88;;;;;;;;;;5080205;28;20215;-60
2022/03/02 10:16:36;;;;;;;15.57;10.15;;;;;;;;;;5079533;28;20279;-57
2022/03/02 10:19:05;;;;;;;15.68;9.85;;;;;;;;;;5079836;28;20208;-61
2022/03/02 10:21:33;;;;;;;16.25;10.50;;;;;;;;;;5080245;28;20275;-60
2022/03/02 10:24:00;;;;;;;15.50;10.55;;;;;;;;;;5080504;28;20535;-60
2022/03/02 10:26:27;;;;;;;13.23;9.70;;;;;;;;;;5078686;28;20217;-60
2022/03/02 10:28:56;;;;;;;16.80;11.00;;;;;;;;;;5079528;28;20211;-61
2022/03/02 10:31:33;;;;;;;15.98;10.77;;;;;;;;;;5076621;28;20438;-60
2022/03/02 10:34:01;;;;;;;18.77;11.25;;;;;;;;;;5066913;28;20535;-60
2022/03/02 10:36:29;;;;;;;18.88;11.45;;;;;;;;;;5079217;28;20208;-61
2022/03/02 10:39:06;;;;;;;15.13;10.55;;;;;;;;;;5079735;28;20207;-60
2022/03/02 10:41:34;;;;;;;17.27;11.73;;;;;;;;;;5063076;28;20211;-61
2022/03/02 10:44:03;;;;;;;16.05;11.00;;;;;;;;;;5058867;28;20213;-61
2022/03/02 10:46:29;;;;;;;15.90;10.55;;;;;;;;;;5058894;28;20215;-59
2022/03/02 10:49:02;;;;;;;16.55;11.30;;;;;;;;;;5059166;28;20562;-60
2022/03/02 10:51:29;;;;;;;15.02;10.50;;;;;;;;;;5059440;28;20540;-60
2022/03/02 10:53:57;;;;;;;15.70;11.70;;;;;;;;;;5059294;28;20217;-60
2022/03/02 10:56:27;;;;;;;16.23;11.35;;;;;;;;;;5058794;28;20215;-60
2022/03/02 10:58:54;;;;;;;13.13;10.52;;;;;;;;;;5058815;28;20211;-59
2022/03/02 11:01:21;;;;;;;23.63;12.43;;;;;;;;;;5071584;28;20624;-61
2022/03/02 11:03:47;;;;;;;18.58;11.60;;;;;;;;;;5079540;28;20215;-59
2022/03/02 11:06:14;;;;;;;19.45;11.18;;;;;;;;;;5079029;28;20224;-60
2022/03/02 11:08:42;;;;;;;19.17;11.23;;;;;;;;;;5078960;28;20208;-61
2022/03/02 11:11:09;;;;;;;15.23;10.93;;;;;;;;;;5079001;28;20224;-61
2022/03/02 11:13:37;;;;;;;15.48;11.13;;;;;;;;;;5079357;28;20208;-62
2022/03/02 11:16:05;;;;;;;15.30;11.95;;;;;;;;;;5078911;28;20208;-60
2022/03/02 11:18:37;;;;;;;17.95;11.85;;;;;;;;;;5078747;28;20215;-59
2022/03/02 11:21:05;;;;;;;20.27;11.38;;;;;;;;;;5078929;28;20259;-59
2022/03/02 11:23:41;;;;;;;15.10;11.18;;;;;;;;;;5078764;28;20215;-60
2022/03/02 11:26:11;;;;;;;18.30;12.48;;;;;;;;;;5078477;28;20529;-60
2022/03/02 11:28:39;;;;;;;18.38;11.75;;;;;;;;;;5078398;28;20279;-60
2022/03/02 11:31:06;;;;;;;17.27;11.57;;;;;;;;;;5078536;28;20243;-60
2022/03/02 11:33:33;;;;;;;13.05;10.38;;;;;;;;;;5078644;28;20215;-60
2022/03/02 11:36:02;;;;;;;13.95;11.00;;;;;;;;;;5078319;28;20409;-60
2022/03/02 11:38:30;;;;;;;17.35;11.02;;;;;;;;;;5078145;28;20416;-60
2022/03/02 11:40:56;;;;;;;18.13;11.07;;;;;;;;;;5078387;28;20540;-59
2022/03/02 11:43:28;;;;;;;18.80;10.75;;;;;;;;;;5078373;28;20212;-60
2022/03/02 11:45:58;;;;;;;14.45;10.85;;;;;;;;;;5078520;28;20413;-59
2022/03/02 11:48:25;;;;;;;14.10;10.23;;;;;;;;;;5078240;28;20201;-60
2022/03/02 11:51:02;;;;;;;15.13;10.73;;;;;;;;;;5078235;28;20435;-60
2022/03/02 11:53:32;;;;;;;13.93;10.50;;;;;;;;;;5077940;28;20215;-60
2022/03/02 11:56:00;;;;;;;12.00;10.38;;;;;;;;;;5076802;28;20238;-61
2022/03/02 11:58:26;;;;;;;15.38;11.07;;;;;;;;;;5077679;28;20464;-61
2022/03/02 12:00:52;;;;;;;16.05;10.85;;;;;;;;;;5078207;28;20401;-60
2022/03/02 12:03:20;;;;;;;17.80;11.43;;;;;;;;;;5077746;28;20209;-59
2022/03/02 12:05:46;;;;;;;17.00;11.65;;;;;;;;;;5077683;28;20570;-60
2022/03/02 12:08:16;;;;;;;15.80;10.63;;;;;;;;;;5077116;28;20208;-61
2022/03/02 12:10:44;;;;;;;16.33;10.20;;;;;;;;;;5077706;28;20315;-61
2022/03/02 12:13:17;;;;;;;13.65;10.65;;;;;;;;;;5077780;28;20272;-61
2022/03/02 12:15:44;;;;;;;14.60;10.93;;;;;;;;;;5077814;28;20208;-61
2022/03/02 12:18:11;;;;;;;15.82;11.48;;;;;;;;;;5076995;28;20215;-60
2022/03/02 12:20:45;;;;;;;18.38;11.68;;;;;;;;;;5077637;28;20204;-62
2022/03/02 12:23:11;;;;;;;16.02;11.63;;;;;;;;;;5077816;28;20235;-61
2022/03/02 12:25:43;;;;;;;18.13;12.10;;;;;;;;;;5077341;28;20200;-61
2022/03/02 12:28:12;;;;;;;19.70;11.70;;;;;;;;;;5076908;28;20204;-61
2022/03/02 12:30:38;;;;;;;18.77;11.60;;;;;;;;;;5077721;28;20228;-60
2022/03/02 12:33:07;;;;;;;17.05;12.43;;;;;;;;;;5077588;28;20216;-60
2022/03/02 12:35:34;;;;;;;18.25;11.00;;;;;;;;;;5077419;28;20239;-60
2022/03/02 12:38:03;;;;;;;16.05;12.25;;;;;;;;;;5076629;28;20215;-61
2022/03/02 12:40:31;;;;;;;16.35;11.93;;;;;;;;;;5076972;28;20215;-61
2022/03/02 12:42:58;;;;;;;21.45;13.15;;;;;;;;;;5077207;28;20307;-60
2022/03/02 12:45:25;;;;;;;17.45;11.57;;;;;;;;;;5077709;28;20213;-60
2022/03/02 12:47:52;;;;;;;16.92;12.68;;;;;;;;;;5076084;28;20498;-61
2022/03/02 12:50:19;;;;;;;16.45;12.23;;;;;;;;;;5076993;28;20208;-62
2022/03/02 12:52:47;;;;;;;17.02;12.00;;;;;;;;;;5077070;28;20435;-61
2022/03/02 12:55:15;;;;;;;14.05;10.88;;;;;;;;;;5077144;28;20208;-61
2022/03/02 12:57:42;;;;;;;18.58;12.35;;;;;;;;;;5076294;28;20219;-61
2022/03/02 13:00:10;;;;;;;19.65;11.75;;;;;;;;;;5077058;28;20216;-61
2022/03/02 13:02:37;;;;;;;19.08;12.50;;;;;;;;;;5077309;28;20555;-61
2022/03/02 13:05:07;;;;;;;19.17;12.27;;;;;;;;;;5076791;28;20423;-59
2022/03/02 13:07:39;;;;;;;17.17;11.63;;;;;;;;;;5076659;28;20308;-61
2022/03/02 13:10:07;;;;;;;17.63;11.57;;;;;;;;;;5076891;28;20516;-60
2022/03/02 13:12:36;;;;;;;18.15;12.10;;;;;;;;;;5076788;28;20224;-60
2022/03/02 13:15:03;;;;;;;20.27;12.20;;;;;;;;;;5076588;28;20219;-60
2022/03/02 13:17:29;;;;;;;22.38;12.55;;;;;;;;;;5076362;28;20208;-61
2022/03/02 13:19:56;;;;;;;22.00;12.80;;;;;;;;;;5076804;28;20208;-61
2022/03/02 13:22:24;;;;;;;18.45;12.05;;;;;;;;;;5076790;28;20208;-60
2022/03/02 13:24:51;;;;;;;14.88;10.93;;;;;;;;;;5076816;28;20234;-60
2022/03/02 13:27:17;;;;;;;12.82;10.32;;;;;;;;;;5076165;28;20235;-61
2022/03/02 13:29:53;;;;;;;17.13;10.70;;;;;;;;;;5076474;28;20280;-61
2022/03/02 13:32:20;;;;;;;15.35;10.55;;;;;;;;;;5056796;28;20244;-61
2022/03/02 13:35:01;;;;;;;16.58;10.70;;;;;;;;;;5057054;28;20213;-60
2022/03/02 13:37:53;;;;;;;12.13;9.95;;;;;;;;;;5056454;28;20531;-61
2022/03/02 13:40:39;;;;;;;17.58;10.43;;;;;;;;;;5056999;28;20209;-61
2022/03/02 13:43:24;;;;;;;15.93;10.35;;;;;;;;;;5056629;28;20209;-61
2022/03/02 13:46:15;;;;;;;14.70;10.70;;;;;;;;;;5056492;28;20216;-61
2022/03/02 13:48:46;;;;;;;21.40;11.88;;;;;;;;;;5056567;28;20224;-60
2022/03/02 13:51:13;;;;;;;15.70;10.30;;;;;;;;;;5056538;28;20291;-60
2022/03/02 13:53:40;;;;;;;14.20;10.05;;;;;;;;;;5056381;28;20223;-62
2022/03/02 13:56:07;;;;;;;15.68;10.27;;;;;;;;;;5056393;28;20215;-62
2022/03/02 13:58:34;;;;;;;16.75;11.00;;;;;;;;;;5055869;28;20205;-62
2022/03/02 14:01:16;;;;;;;13.30;10.60;;;;;;;;;;5056173;28;20216;-62
2022/03/02 14:03:46;;;;;;;16.20;10.38;;;;;;;;;;5060795;28;20251;-62
2022/03/02 14:06:14;;;;;;;14.32;9.85;;;;;;;;;;5076150;28;20434;-62
2022/03/02 14:08:58;;;;;;;14.48;10.05;;;;;;;;;;5076117;28;20410;-62
2022/03/02 14:11:35;;;;;;;15.50;9.90;;;;;;;;;;5076094;28;20228;-62
2022/03/02 14:14:01;;;;;;;14.65;10.23;;;;;;;;;;5076341;28;20208;-62
2022/03/02 14:16:29;;;;;;;16.35;10.70;;;;;;;;;;5076055;28;20208;-62
2022/03/02 14:19:06;;;;;;;10.93;9.70;;;;;;;;;;5077469;28;20215;-62
2022/03/02 14:21:33;;;;;;;17.45;10.35;;;;;;;;;;5079602;28;20243;-62
2022/03/02 14:24:08;;;;;;;12.80;10.32;;;;;;;;;;5079602;28;20427;-62